Time;durP1;ratioP1;P1;durP2;ratioP2;P2;SDS_P1;SDS_P2;PMS_P1;PMS_P2;Temp;Humidity;BMP_temperature;BMP_pressure;BME280_temperature;BME280_humidity;BME280_pressure;Samples;Min_cycle;Max_cycle;Signal;HPM_P1;HPM_P2
2022/01/12 00:01:02;;;;;;;;;;;2.80;99.90;;;;;;4937966;29;20412;-87
2022/01/12 00:03:29;;;;;;;;;;;2.80;99.90;;;;;;4938019;29;19949;-87
2022/01/12 00:05:57;;;;;;;;;;;2.80;99.90;;;;;;4937365;29;19927;-87
2022/01/12 00:08:25;;;;;;;;;;;2.80;99.90;;;;;;4937548;29;20362;-86
2022/01/12 00:10:52;;;;;;;;;;;2.80;99.90;;;;;;4937929;29;19973;-87
2022/01/12 00:13:18;;;;;;;;;;;2.80;99.90;;;;;;4938627;29;19959;-86
2022/01/12 00:15:45;;;;;;;;;;;2.80;99.90;;;;;;4938081;29;20087;-86
2022/01/12 00:18:12;;;;;;;;;;;2.80;99.90;;;;;;4920828;29;19927;-87
2022/01/12 00:20:39;;;;;;;;;;;2.80;99.90;;;;;;4937853;29;20378;-87
2022/01/12 00:23:07;;;;;;;;;;;3.10;99.90;;;;;;4938141;29;20006;-86
2022/01/12 00:25:55;;;;;;;;;;;2.20;99.90;;;;;;4937972;29;19927;-86
2022/01/12 00:33:52;;;;;;;;;;;3.00;99.90;;;;;;4937931;29;20368;-87
2022/01/12 00:36:19;;;;;;;;;;;2.90;99.90;;;;;;4937537;29;19941;-87
2022/01/12 00:38:48;;;;;;;;;;;3.40;99.90;;;;;;4936972;29;19974;-87
2022/01/12 00:41:16;;;;;;;;;;;3.10;99.90;;;;;;4938006;29;19974;-87
2022/01/12 00:43:45;;;;;;;;;;;3.10;99.90;;;;;;4936984;29;19930;-86
2022/01/12 00:46:13;;;;;;;;;;;2.70;99.90;;;;;;4937564;29;19981;-85
2022/01/12 00:48:40;;;;;;;;;;;2.70;99.90;;;;;;4936328;29;19927;-86
2022/01/12 00:51:07;;;;;;;;;;;2.70;99.90;;;;;;4938039;29;19997;-86
2022/01/12 00:53:34;;;;;;;;;;;2.70;99.90;;;;;;4937624;29;20381;-87
2022/01/12 00:56:02;;;;;;;;;;;2.60;99.90;;;;;;4937491;29;19927;-86
2022/01/12 00:58:29;;;;;;;;;;;2.60;99.90;;;;;;4936523;29;19927;-87
2022/01/12 01:00:56;;;;;;;;;;;2.60;99.90;;;;;;4937348;29;19927;-87
2022/01/12 01:03:23;;;;;;;;;;;2.80;99.90;;;;;;4937318;29;19998;-86
2022/01/12 01:05:50;;;;;;;;;;;2.60;99.90;;;;;;4937489;29;19927;-87
2022/01/12 01:08:17;;;;;;;;;;;2.50;99.90;;;;;;4937162;29;19931;-86
2022/01/12 01:10:47;;;;;;;;;;;3.10;99.90;;;;;;4937244;29;19965;-86
2022/01/12 01:13:18;;;;;;;;;;;2.50;99.90;;;;;;4937572;29;20320;-87
2022/01/12 01:16:08;;;;;;;;;;;2.50;99.90;;;;;;4937366;29;19930;-86
2022/01/12 01:26:49;;;;;;;;;;;2.50;99.90;;;;;;4937407;29;20293;-86
2022/01/12 01:29:18;;;;;;;;;;;2.60;99.90;;;;;;4937940;29;20362;-86
2022/01/12 01:31:45;;;;;;;;;;;2.90;99.90;;;;;;4937807;29;19996;-86
2022/01/12 01:34:14;;;;;;;;;;;2.60;99.90;;;;;;4937726;29;19927;-86
2022/01/12 01:36:42;;;;;;;;;;;2.70;99.90;;;;;;4937370;29;20010;-86
2022/01/12 01:39:09;;;;;;;;;;;3.30;99.90;;;;;;4936923;29;19927;-86
2022/01/12 01:41:37;;;;;;;;;;;2.70;99.90;;;;;;4937317;29;19935;-85
2022/01/12 01:55:04;;;;;;;;;;;2.40;99.90;;;;;;4938692;29;19934;-86
2022/01/12 01:57:31;;;;;;;;;;;2.50;99.90;;;;;;4940452;29;19982;-86
2022/01/12 01:59:58;;;;;;;;;;;2.10;99.90;;;;;;4940724;29;20010;-86
2022/01/12 02:02:26;;;;;;;;;;;2.80;99.90;;;;;;4940764;29;19931;-86
2022/01/12 02:04:53;;;;;;;;;;;2.40;99.90;;;;;;4940316;29;19927;-86
2022/01/12 02:07:20;;;;;;;;;;;2.40;99.90;;;;;;4940175;29;19930;-86
2022/01/12 02:09:47;;;;;;;;;;;2.50;99.90;;;;;;4939804;29;20342;-86
2022/01/12 02:12:14;;;;;;;;;;;2.50;99.90;;;;;;4940351;29;19927;-86
2022/01/12 02:14:40;;;;;;;;;;;2.60;99.90;;;;;;4940209;29;19974;-86
2022/01/12 02:17:15;;;;;;;;;;;2.50;99.90;;;;;;4939530;29;19982;-85
2022/01/12 02:19:54;;;;;;;;;;;2.50;99.90;;;;;;4940154;29;19930;-86
2022/01/12 02:36:11;;;;;;;;;;;2.50;99.90;;;;;;4940298;29;19977;-86
2022/01/12 02:41:23;;;;;;;;;;;2.50;99.90;;;;;;4939935;29;19934;-86
2022/01/12 02:54:52;;;;;;;;;;;2.20;99.90;;;;;;4939242;29;20400;-86
2022/01/12 02:57:19;;;;;;;;;;;2.30;99.90;;;;;;4939393;29;20381;-86
2022/01/12 03:00:01;;;;;;;;;;;2.20;99.90;;;;;;4939849;29;19927;-85
2022/01/12 03:02:32;;;;;;;;;;;2.20;99.90;;;;;;4939709;29;19993;-86
2022/01/12 03:05:16;;;;;;;;;;;2.20;99.90;;;;;;4939723;29;19927;-86
2022/01/12 03:07:43;;;;;;;;;;;2.10;99.90;;;;;;4938452;29;20374;-86
2022/01/12 03:10:13;;;;;;;;;;;2.00;99.90;;;;;;4939289;29;19931;-86
2022/01/12 03:12:40;;;;;;;;;;;2.00;99.90;;;;;;4939802;29;19927;-86
2022/01/12 03:15:07;;;;;;;;;;;2.40;99.90;;;;;;4939373;29;19974;-86
2022/01/12 03:17:34;;;;;;;;;;;2.00;99.90;;;;;;4939151;29;20413;-86
2022/01/12 03:20:01;;;;;;;;;;;2.00;99.90;;;;;;4939552;29;19933;-86
2022/01/12 03:22:27;;;;;;;;;;;2.00;99.90;;;;;;4939185;29;19931;-86
2022/01/12 03:24:54;;;;;;;;;;;2.00;99.90;;;;;;4939839;29;19986;-87
2022/01/12 03:27:25;;;;;;;;;;;2.40;99.90;;;;;;4939598;29;19970;-86
2022/01/12 03:29:55;;;;;;;;;;;1.90;99.90;;;;;;4939783;29;19998;-86
2022/01/12 03:32:30;;;;;;;;;;;1.90;99.90;;;;;;4939875;29;20373;-86
2022/01/12 03:35:07;;;;;;;;;;;1.90;99.90;;;;;;4939283;29;19931;-86
2022/01/12 03:37:42;;;;;;;;;;;1.90;99.90;;;;;;4938607;29;19981;-85
2022/01/12 03:40:09;;;;;;;;;;;3.00;99.90;;;;;;4938580;29;19951;-86
2022/01/12 03:42:38;;;;;;;;;;;2.00;99.90;;;;;;4938626;29;20022;-85
2022/01/12 03:45:05;;;;;;;;;;;2.10;99.90;;;;;;4939084;29;19927;-86
2022/01/12 03:47:32;;;;;;;;;;;2.30;99.90;;;;;;4938555;29;19990;-86
2022/01/12 03:49:59;;;;;;;;;;;2.40;99.90;;;;;;4938656;29;19935;-87
2022/01/12 03:52:26;;;;;;;;;;;2.70;99.90;;;;;;4938390;29;19930;-86
2022/01/12 03:54:52;;;;;;;;;;;2.20;99.90;;;;;;4938677;29;19974;-86
2022/01/12 03:57:20;;;;;;;;;;;2.10;99.90;;;;;;4938376;29;19927;-86
2022/01/12 03:59:48;;;;;;;;;;;2.00;99.90;;;;;;4926412;29;19931;-85
2022/01/12 04:02:15;;;;;;;;;;;2.00;99.90;;;;;;4938596;29;19974;-87
2022/01/12 04:05:06;;;;;;;;;;;2.00;99.90;;;;;;4938233;29;20457;-86
2022/01/12 04:10:14;;;;;;;;;;;1.90;99.90;;;;;;4938187;29;20029;-86
2022/01/12 04:12:41;;;;;;;;;;;2.00;99.90;;;;;;4938208;29;20033;-86
2022/01/12 04:15:10;;;;;;;;;;;1.90;99.90;;;;;;4937857;29;19973;-87
2022/01/12 04:17:36;;;;;;;;;;;2.00;99.90;;;;;;4937008;29;20389;-86
2022/01/12 04:20:04;;;;;;;;;;;1.90;99.90;;;;;;4920377;29;20013;-87
2022/01/12 04:25:15;;;;;;;;;;;2.20;99.90;;;;;;4937612;29;19938;-87
2022/01/12 04:27:41;;;;;;;;;;;2.40;99.90;;;;;;4937490;29;19935;-86
2022/01/12 04:30:11;;;;;;;;;;;3.00;99.90;;;;;;4937757;29;19934;-86
2022/01/12 04:32:41;;;;;;;;;;;2.30;99.90;;;;;;4937548;29;19934;-86
2022/01/12 04:35:09;;;;;;;;;;;2.20;99.90;;;;;;4938190;29;19934;-86
2022/01/12 04:37:36;;;;;;;;;;;2.00;99.90;;;;;;4937588;29;20029;-86
2022/01/12 04:40:04;;;;;;;;;;;2.00;99.90;;;;;;4937805;29;19970;-86
2022/01/12 04:42:31;;;;;;;;;;;1.90;99.90;;;;;;4937661;29;20400;-86
2022/01/12 04:45:03;;;;;;;;;;;2.70;99.90;;;;;;4937382;29;19974;-86
2022/01/12 04:47:57;;;;;;;;;;;2.00;99.90;;;;;;4937789;29;19927;-86
2022/01/12 04:50:24;;;;;;;;;;;2.00;99.90;;;;;;4937838;29;19953;-86
2022/01/12 04:52:51;;;;;;;;;;;2.00;99.90;;;;;;4936457;29;19962;-85
2022/01/12 04:55:18;;;;;;;;;;;2.00;99.90;;;;;;4937056;29;20293;-86
2022/01/12 04:57:47;;;;;;;;;;;2.00;99.90;;;;;;4919762;29;21501;-86
2022/01/12 05:00:16;;;;;;;;;;;2.00;99.90;;;;;;4937639;29;19966;-86
2022/01/12 05:08:21;;;;;;;;;;;1.80;99.90;;;;;;4920385;29;19927;-85
2022/01/12 05:13:32;;;;;;;;;;;2.00;99.90;;;;;;4937442;29;20309;-85
2022/01/12 05:16:00;;;;;;;;;;;2.00;99.90;;;;;;4936775;29;19926;-85
2022/01/12 05:18:29;;;;;;;;;;;1.60;99.90;;;;;;4937234;29;19961;-85
2022/01/12 05:20:56;;;;;;;;;;;2.10;99.90;;;;;;4937372;29;19958;-85
2022/01/12 05:23:22;;;;;;;;;;;2.00;99.90;;;;;;4937045;29;20019;-85
2022/01/12 05:25:51;;;;;;;;;;;2.10;99.90;;;;;;4937271;29;19990;-85
2022/01/12 05:28:18;;;;;;;;;;;2.10;99.90;;;;;;4937655;29;19934;-85
2022/01/12 05:30:45;;;;;;;;;;;2.40;99.90;;;;;;4923101;29;20046;-85
2022/01/12 05:33:12;;;;;;;;;;;2.20;99.90;;;;;;4938738;29;19927;-85
2022/01/12 05:35:41;;;;;;;;;;;2.10;99.90;;;;;;4936926;29;20289;-85
2022/01/12 05:38:10;;;;;;;;;;;2.30;99.90;;;;;;4936638;29;19933;-85
2022/01/12 05:40:37;;;;;;;;;;;2.20;99.90;;;;;;4937070;29;19978;-84
2022/01/12 05:43:04;;;;;;;;;;;2.00;99.90;;;;;;4936814;29;20373;-86
2022/01/12 05:45:32;;;;;;;;;;;2.10;99.90;;;;;;4936858;29;19934;-86
2022/01/12 05:50:46;;;;;;;;;;;2.20;99.90;;;;;;4936866;29;19989;-86
2022/01/12 05:53:13;;;;;;;;;;;2.10;99.90;;;;;;4937109;29;19942;-86
2022/01/12 05:55:40;;;;;;;;;;;2.10;99.90;;;;;;4928558;29;19997;-85
2022/01/12 05:58:07;;;;;;;;;;;2.10;99.90;;;;;;4917847;29;19931;-86
2022/01/12 06:00:34;;;;;;;;;;;2.30;99.90;;;;;;4917649;29;20346;-85
2022/01/12 06:03:01;;;;;;;;;;;2.50;99.90;;;;;;4929722;29;19978;-85
2022/01/12 06:05:28;;;;;;;;;;;2.30;99.90;;;;;;4936463;29;19927;-86
2022/01/12 06:07:56;;;;;;;;;;;2.40;99.90;;;;;;4936721;29;19958;-85
2022/01/12 06:10:23;;;;;;;;;;;2.30;99.90;;;;;;4936646;29;19926;-85
2022/01/12 06:12:50;;;;;;;;;;;2.70;99.90;;;;;;4936520;29;19993;-86
2022/01/12 06:15:17;;;;;;;;;;;2.30;99.90;;;;;;4936155;29;19978;-85
2022/01/12 06:17:43;;;;;;;;;;;2.40;99.90;;;;;;4936078;29;19969;-85
2022/01/12 06:20:11;;;;;;;;;;;3.20;99.90;;;;;;4936340;29;19931;-86
2022/01/12 06:22:38;;;;;;;;;;;2.20;99.90;;;;;;4936194;29;20373;-85
2022/01/12 06:25:11;;;;;;;;;;;2.20;99.90;;;;;;4935313;29;20412;-86
2022/01/12 06:27:48;;;;;;;;;;;2.10;99.90;;;;;;4916237;29;20022;-85
2022/01/12 06:31:10;;;;;;;;;;;2.20;99.90;;;;;;4917338;29;19927;-86
2022/01/12 06:33:03;;;;;;;;;;;2.20;99.90;;;;;;4925442;29;19927;-85
2022/01/12 06:35:30;;;;;;;;;;;2.20;99.90;;;;;;4935776;29;20003;-86
2022/01/12 06:37:56;;;;;;;;;;;2.40;99.90;;;;;;4935472;29;19962;-85
2022/01/12 06:40:25;;;;;;;;;;;2.10;99.90;;;;;;4936373;29;20018;-86
2022/01/12 06:42:52;;;;;;;;;;;2.10;99.90;;;;;;4938926;29;20343;-86
2022/01/12 06:45:18;;;;;;;;;;;2.10;99.90;;;;;;4938897;29;19927;-86
2022/01/12 06:47:45;;;;;;;;;;;2.20;99.90;;;;;;4938877;29;20034;-86
2022/01/12 06:50:12;;;;;;;;;;;2.30;99.90;;;;;;4938622;29;20437;-86
2022/01/12 06:52:39;;;;;;;;;;;2.20;99.90;;;;;;4935082;29;19927;-86
2022/01/12 06:55:06;;;;;;;;;;;2.80;99.90;;;;;;4938864;29;20461;-86
2022/01/12 06:57:34;;;;;;;;;;;2.30;99.90;;;;;;4938733;29;20338;-85
2022/01/12 07:00:01;;;;;;;;;;;2.30;99.90;;;;;;4938405;29;20025;-85
2022/01/12 07:02:28;;;;;;;;;;;2.20;99.90;;;;;;4938418;29;20389;-85
2022/01/12 07:04:55;;;;;;;;;;;2.10;99.90;;;;;;4938766;29;20374;-85
2022/01/12 07:07:23;;;;;;;;;;;2.10;99.90;;;;;;4938926;29;20412;-86
2022/01/12 07:09:50;;;;;;;;;;;2.10;99.90;;;;;;4938274;29;19933;-85
2022/01/12 07:12:17;;;;;;;;;;;2.10;99.90;;;;;;4938311;29;20023;-85
2022/01/12 07:14:45;;;;;;;;;;;2.10;99.90;;;;;;4937948;29;20301;-85
2022/01/12 07:17:12;;;;;;;;;;;2.50;99.90;;;;;;4938659;29;20001;-86
2022/01/12 07:19:39;;;;;;;;;;;2.40;99.90;;;;;;4938897;29;20448;-86
2022/01/12 07:22:06;;;;;;;;;;;2.40;99.90;;;;;;4939691;29;19973;-86
2022/01/12 07:24:32;;;;;;;;;;;2.30;99.90;;;;;;4939328;29;20336;-85
2022/01/12 07:26:59;;;;;;;;;;;2.30;99.90;;;;;;4938946;29;19926;-86
2022/01/12 07:29:26;;;;;;;;;;;2.20;99.90;;;;;;4939116;29;20305;-85
2022/01/12 07:31:54;;;;;;;;;;;2.20;99.90;;;;;;4939000;29;19982;-87
2022/01/12 07:34:21;;;;;;;;;;;2.00;99.90;;;;;;4938640;29;20619;-85
2022/01/12 07:36:48;;;;;;;;;;;2.20;99.90;;;;;;4935566;29;20389;-86
2022/01/12 07:39:15;;;;;;;;;;;2.70;99.90;;;;;;4937016;29;19973;-84
2022/01/12 07:41:42;;;;;;;;;;;2.50;99.90;;;;;;4925289;29;19938;-85
2022/01/12 07:44:09;;;;;;;;;;;2.30;99.90;;;;;;4923321;29;19939;-85
2022/01/12 07:46:35;;;;;;;;;;;2.40;99.90;;;;;;4916683;29;20359;-84
2022/01/12 07:49:04;;;;;;;;;;;2.30;99.90;;;;;;4935135;29;19927;-86
2022/01/12 07:51:31;;;;;;;;;;;2.30;99.90;;;;;;4921548;29;19990;-85
2022/01/12 07:53:58;;;;;;;;;;;2.30;99.90;;;;;;4919111;29;19978;-86
2022/01/12 07:56:25;;;;;;;;;;;2.30;99.90;;;;;;4931138;29;20453;-86
2022/01/12 07:58:51;;;;;;;;;;;2.40;99.90;;;;;;4929395;29;19927;-85
2022/01/12 08:01:18;;;;;;;;;;;2.70;99.90;;;;;;4926538;29;19931;-85
2022/01/12 08:03:45;;;;;;;;;;;2.10;99.90;;;;;;4933194;29;19951;-85
2022/01/12 08:06:13;;;;;;;;;;;2.80;99.90;;;;;;4932097;29;19945;-85
2022/01/12 08:08:40;;;;;;;;;;;1.30;99.90;;;;;;4931706;29;19943;-85
2022/01/12 08:11:07;;;;;;;;;;;2.30;99.90;;;;;;4927087;29;20006;-85
2022/01/12 08:16:26;;;;;;;;;;;3.30;99.90;;;;;;4896996;29;20279;-88
2022/01/12 08:18:53;;;;;;;;;;;2.40;99.90;;;;;;4892930;29;19931;-87
2022/01/12 08:21:21;;;;;;;;;;;2.60;99.90;;;;;;4891162;29;19938;-86
2022/01/12 08:23:48;;;;;;;;;;;2.80;99.90;;;;;;4899155;29;19934;-89
2022/01/12 08:26:15;;;;;;;;;;;2.40;99.90;;;;;;4902024;29;19995;-84
2022/01/12 08:28:43;;;;;;;;;;;2.30;99.90;;;;;;4900424;29;19976;-87
2022/01/12 08:31:10;;;;;;;;;;;2.60;99.90;;;;;;4904440;29;19931;-89
2022/01/12 08:33:37;;;;;;;;;;;2.90;99.90;;;;;;4881688;29;20000;-84
2022/01/12 08:36:04;;;;;;;;;;;2.70;99.90;;;;;;4901789;29;19938;-85
2022/01/12 08:38:33;;;;;;;;;;;2.50;99.90;;;;;;4901989;29;19939;-84
2022/01/12 08:41:00;;;;;;;;;;;2.30;99.90;;;;;;4877855;29;20137;-87
2022/01/12 08:43:27;;;;;;;;;;;2.60;99.90;;;;;;4900409;29;19928;-87
2022/01/12 08:45:54;;;;;;;;;;;2.40;99.90;;;;;;4898381;29;20588;-83
2022/01/12 08:48:21;;;;;;;;;;;2.40;99.90;;;;;;4906265;29;20377;-86
2022/01/12 08:50:49;;;;;;;;;;;2.40;99.90;;;;;;4896142;29;19936;-89
2022/01/12 08:53:16;;;;;;;;;;;2.40;99.90;;;;;;4902957;29;19927;-87
2022/01/12 09:04:51;;;;;;;;;;;3.70;99.90;;;;;;4894565;29;19983;-92
2022/01/12 09:07:52;;;;;;;;;;;3.00;99.90;;;;;;4919517;29;19973;-94
2022/01/12 09:13:55;;;;;;;;;;;1.00;99.90;;;;;;4842609;29;19935;-91
2022/01/12 10:00:51;;;;;;;;;;;3.40;99.90;;;;;;6020052;23;19930;31
2022/01/12 10:29:43;;;;;;;;;;;4.10;99.90;;;;;;4938113;29;19926;-92
2022/01/12 10:32:12;;;;;;;;;;;4.50;99.90;;;;;;4936237;29;19931;-86
2022/01/12 10:34:47;;;;;;;;;;;2.50;99.90;;;;;;4930444;29;19934;-91
2022/01/12 10:37:16;;;;;;;;;;;4.60;99.90;;;;;;4937583;29;19942;-89
2022/01/12 10:39:48;;;;;;;;;;;4.90;99.90;;;;;;4931397;29;20393;-90
2022/01/12 10:42:15;;;;;;;;;;;5.70;99.90;;;;;;4932482;29;19945;-90
2022/01/12 10:44:45;;;;;;;;;;;5.10;99.90;;;;;;4925603;28;19938;-88
2022/01/12 10:47:16;;;;;;;;;;;4.70;99.90;;;;;;4928337;29;19926;-89
2022/01/12 10:49:47;;;;;;;;;;;4.80;99.90;;;;;;4919187;29;20286;-89
2022/01/12 10:52:14;;;;;;;;;;;5.30;99.90;;;;;;4924110;29;20108;-90
2022/01/12 10:54:45;;;;;;;;;;;5.00;99.90;;;;;;4932809;29;21583;-90
2022/01/12 10:57:34;;;;;;;;;;;;;;;;;;;;;
2022/01/12 11:00:07;;;;;;;;;;;5.60;99.90;;;;;;4923689;29;19938;-90
2022/01/12 11:02:34;;;;;;;;;;;5.30;99.90;;;;;;4925035;29;20365;-89
2022/01/12 11:05:02;;;;;;;;;;;5.30;99.90;;;;;;4922595;29;20321;-89
2022/01/12 11:07:30;;;;;;;;;;;5.00;99.90;;;;;;4928480;29;20494;-90
2022/01/12 11:09:58;;;;;;;;;;;5.40;99.90;;;;;;4934649;29;20029;-89
2022/01/12 11:12:25;;;;;;;;;;;5.40;99.90;;;;;;4925826;29;19927;-91
2022/01/12 11:14:52;;;;;;;;;;;5.80;99.90;;;;;;4932657;29;19931;-89
2022/01/12 11:17:21;;;;;;;;;;;5.60;99.90;;;;;;4932027;29;19939;-90
2022/01/12 11:19:53;;;;;;;;;;;5.70;99.90;;;;;;4932699;29;20032;-90
2022/01/12 11:22:26;;;;;;;;;;;5.60;99.90;;;;;;4930871;29;20009;-91
2022/01/12 11:25:00;;;;;;;;;;;5.80;99.90;;;;;;4931100;29;19930;-90
2022/01/12 11:27:29;;;;;;;;;;;6.20;99.90;;;;;;4927363;29;19931;-88
2022/01/12 11:30:01;;;;;;;;;;;5.60;99.90;;;;;;4933597;29;19933;-91
2022/01/12 11:35:57;;;;;;;;;;;5.80;99.90;;;;;;4877194;29;19932;-90
2022/01/12 11:38:38;;;;;;;;;;;5.70;99.90;;;;;;4868098;29;20047;-89
2022/01/12 11:50:21;;;;;;;;;;;5.70;99.90;;;;;;4913384;29;20035;-91
2022/01/12 11:52:59;;;;;;;;;;;8.30;99.90;;;;;;4904081;29;19927;-91
2022/01/12 11:55:37;;;;;;;;;;;6.20;99.90;;;;;;4908615;29;19985;-91
2022/01/12 12:01:17;;;;;;;;;;;6.20;99.90;;;;;;4881812;29;20325;-91
2022/01/12 12:04:05;;;;;;;;;;;;;;;;;;;;;
2022/01/12 12:06:33;;;;;;;;;;;6.30;99.90;;;;;;4906077;29;20349;-89
2022/01/12 12:09:07;;;;;;;;;;;6.40;99.90;;;;;;4908478;29;20600;-91
2022/01/12 12:11:48;;;;;;;;;;;;;;;;;;;;;
2022/01/12 12:14:23;;;;;;;;;;;6.60;99.90;;;;;;4907236;29;19954;-91
2022/01/12 12:20:08;;;;;;;;;;;4.60;99.90;;;;;;4883586;29;19991;-92
2022/01/12 12:22:38;;;;;;;;;;;6.60;99.90;;;;;;4897649;29;20669;-91
2022/01/12 12:28:15;;;;;;;;;;;8.10;99.90;;;;;;4860295;29;19935;-91
2022/01/12 12:30:50;;;;;;;;;;;7.20;99.90;;;;;;4871281;29;19939;-92
2022/01/12 12:39:34;;;;;;;;;;;7.00;99.90;;;;;;4907011;29;19935;-90
2022/01/12 12:42:07;;;;;;;;;;;7.10;99.90;;;;;;4914897;29;19991;-91
2022/01/12 12:44:40;;;;;;;;;;;7.00;99.90;;;;;;4920356;29;19931;-89
2022/01/12 12:47:08;;;;;;;;;;;8.20;99.90;;;;;;4913598;29;20658;-90
2022/01/12 12:50:12;;;;;;;;;;;7.20;99.90;;;;;;4910829;29;20030;-89
2022/01/12 12:56:00;;;;;;;;;;;7.30;99.90;;;;;;4901373;29;19927;-90
2022/01/12 12:58:47;;;;;;;;;;;7.30;99.90;;;;;;4893030;29;20029;-91
2022/01/12 13:01:24;;;;;;;;;;;7.70;99.90;;;;;;4854650;29;19928;-89
2022/01/12 13:06:26;;;;;;;;;;;7.30;99.90;;;;;;4877463;23;20015;-86
2022/01/12 13:08:53;;;;;;;;;;;7.30;99.90;;;;;;4862564;29;19936;-83
2022/01/12 13:11:22;;;;;;;;;;;7.40;99.90;;;;;;4836802;29;20301;-86
2022/01/12 13:13:55;;;;;;;;;;;7.50;99.90;;;;;;4842624;29;19983;-82
2022/01/12 13:16:26;;;;;;;;;;;7.50;99.90;;;;;;4870579;29;20006;-86
2022/01/12 13:19:02;;;;;;;;;;;7.60;99.90;;;;;;4881791;29;20001;-85
2022/01/12 13:21:28;;;;;;;;;;;7.60;99.90;;;;;;4878305;29;19928;-86
2022/01/12 13:23:57;;;;;;;;;;;7.60;99.90;;;;;;4879401;29;19984;-86
2022/01/12 13:26:25;;;;;;;;;;;7.70;99.90;;;;;;4878457;29;19932;-85
2022/01/12 13:28:52;;;;;;;;;;;7.70;99.90;;;;;;4877530;29;19935;-84
2022/01/12 13:31:20;;;;;;;;;;;7.80;99.90;;;;;;4861395;29;19928;-84
2022/01/12 13:33:48;;;;;;;;;;;7.90;99.90;;;;;;4831964;29;20039;-83
2022/01/12 13:36:16;;;;;;;;;;;7.90;99.90;;;;;;4834781;29;19984;-80
2022/01/12 13:38:43;;;;;;;;;;;8.00;99.90;;;;;;4830193;29;19976;-84
2022/01/12 13:41:11;;;;;;;;;;;8.00;99.90;;;;;;4835615;29;19939;-81
2022/01/12 13:43:39;;;;;;;;;;;8.10;99.90;;;;;;4832506;29;19928;-82
2022/01/12 13:46:12;;;;;;;;;;;8.20;99.90;;;;;;4831023;29;20348;-82
2022/01/12 13:48:41;;;;;;;;;;;8.20;99.90;;;;;;4875493;29;19932;-83
2022/01/12 13:51:10;;;;;;;;;;;8.30;99.90;;;;;;4880654;29;19939;-83
2022/01/12 13:53:37;;;;;;;;;;;8.40;99.90;;;;;;4880932;29;19935;-84
2022/01/12 13:56:05;;;;;;;;;;;8.40;99.90;;;;;;4878694;29;19979;-81
2022/01/12 13:58:33;;;;;;;;;;;8.50;99.90;;;;;;4879681;29;19928;-83
2022/01/12 14:01:00;;;;;;;;;;;8.50;99.90;;;;;;4880816;29;19949;-83
2022/01/12 14:03:27;;;;;;;;;;;8.50;99.90;;;;;;4874926;29;19928;-83
2022/01/12 14:05:59;;;;;;;;;;;8.50;99.90;;;;;;4866944;29;20827;-81
2022/01/12 14:08:40;;;;;;;;;;;8.60;99.90;;;;;;4869411;29;19938;-82
2022/01/12 14:11:08;;;;;;;;;;;8.60;99.90;;;;;;4905539;29;19979;-84
2022/01/12 14:13:40;;;;;;;;;;;8.60;99.90;;;;;;4898530;29;20003;-82
2022/01/12 14:16:10;;;;;;;;;;;8.80;99.90;;;;;;4896819;29;20405;-87
2022/01/12 14:18:37;;;;;;;;;;;8.70;99.90;;;;;;4898769;29;19935;-86
2022/01/12 14:21:13;;;;;;;;;;;8.70;99.90;;;;;;4898751;29;19936;-85
2022/01/12 14:23:41;;;;;;;;;;;8.30;99.90;;;;;;4905702;29;19927;-86
2022/01/12 14:26:08;;;;;;;;;;;8.80;99.90;;;;;;4898284;29;20444;-86
2022/01/12 14:28:38;;;;;;;;;;;8.80;99.90;;;;;;4897261;29;19927;-86
2022/01/12 14:31:05;;;;;;;;;;;8.80;99.90;;;;;;4886052;29;20412;-83
2022/01/12 14:33:32;;;;;;;;;;;9.30;99.90;;;;;;4865251;29;19975;-84
2022/01/12 14:35:58;;;;;;;;;;;8.90;99.90;;;;;;4859549;29;19932;-86
2022/01/12 14:38:25;;;;;;;;;;;8.80;99.90;;;;;;4847687;29;19935;-85
2022/01/12 14:40:53;;;;;;;;;;;8.50;99.90;;;;;;4877157;29;19927;-85
2022/01/12 14:43:25;;;;;;;;;;;8.90;99.90;;;;;;4900739;29;20497;-85
2022/01/12 14:45:52;;;;;;;;;;;9.10;99.90;;;;;;4899093;29;19946;-85
2022/01/12 14:48:22;;;;;;;;;;;8.80;99.90;;;;;;4899320;29;20394;-84
2022/01/12 14:50:50;;;;;;;;;;;8.80;99.90;;;;;;4891611;29;19995;-86
2022/01/12 14:53:19;;;;;;;;;;;8.80;99.90;;;;;;4898528;29;19931;-85
2022/01/12 14:55:45;;;;;;;;;;;8.80;99.90;;;;;;4898201;29;19927;-85
2022/01/12 14:58:14;;;;;;;;;;;8.90;99.90;;;;;;4893560;29;19934;-87
2022/01/12 15:00:40;;;;;;;;;;;8.90;99.90;;;;;;4895638;29;19946;-85
2022/01/12 15:03:09;;;;;;;;;;;8.80;99.90;;;;;;4896794;29;19928;-85
2022/01/12 15:05:36;;;;;;;;;;;8.90;99.90;;;;;;4897159;29;19992;-87
2022/01/12 15:08:04;;;;;;;;;;;7.60;99.90;;;;;;4860293;29;19999;-84
2022/01/12 15:10:31;;;;;;;;;;;8.90;99.90;;;;;;4892668;29;19934;-86
2022/01/12 15:13:04;;;;;;;;;;;8.80;99.90;;;;;;4901089;29;19935;-88
2022/01/12 15:15:33;;;;;;;;;;;8.80;99.90;;;;;;4894973;29;19963;-86
2022/01/12 15:18:00;;;;;;;;;;;8.70;99.90;;;;;;4900299;29;20003;-85
2022/01/12 15:20:28;;;;;;;;;;;8.70;99.90;;;;;;4909769;29;19928;-84
2022/01/12 15:22:55;;;;;;;;;;;8.60;99.90;;;;;;4897558;29;19936;-84
2022/01/12 15:25:24;;;;;;;;;;;8.50;99.90;;;;;;4897582;29;19931;-85
2022/01/12 15:27:51;;;;;;;;;;;8.50;99.90;;;;;;4889021;29;19931;-86
2022/01/12 15:30:18;;;;;;;;;;;8.50;99.90;;;;;;4894681;29;19932;-86
2022/01/12 15:32:47;;;;;;;;;;;8.40;99.90;;;;;;4869358;29;21231;-86
2022/01/12 15:35:16;;;;;;;;;;;8.00;99.90;;;;;;4846741;29;19991;-84
2022/01/12 15:37:43;;;;;;;;;;;7.60;99.90;;;;;;4885441;29;20042;-85
2022/01/12 15:40:10;;;;;;;;;;;8.30;99.90;;;;;;4895010;29;19963;-86
2022/01/12 15:42:37;;;;;;;;;;;8.20;99.90;;;;;;4894828;29;20405;-86
2022/01/12 15:45:05;;;;;;;;;;;8.10;99.90;;;;;;4896361;29;19983;-86
2022/01/12 15:47:32;;;;;;;;;;;8.10;99.90;;;;;;4894442;29;19927;-86
2022/01/12 15:50:00;;;;;;;;;;;8.00;99.90;;;;;;4893789;29;19935;-84
2022/01/12 15:52:29;;;;;;;;;;;8.00;99.90;;;;;;4863571;29;19975;-84
2022/01/12 15:54:56;;;;;;;;;;;7.90;99.90;;;;;;4883560;29;20362;-86
2022/01/12 16:00:20;;;;;;;;;;;8.20;99.90;;;;;;4891973;29;20422;-84
2022/01/12 16:02:47;;;;;;;;;;;7.80;99.90;;;;;;4894618;29;20297;-85
2022/01/12 16:05:16;;;;;;;;;;;7.70;99.90;;;;;;4893344;29;19963;-86
2022/01/12 16:07:43;;;;;;;;;;;7.60;99.90;;;;;;4886317;29;20505;-85
2022/01/12 16:10:10;;;;;;;;;;;7.60;99.90;;;;;;4895622;29;20366;-86
2022/01/12 16:12:37;;;;;;;;;;;7.60;99.90;;;;;;4895812;29;20027;-85
2022/01/12 16:15:04;;;;;;;;;;;7.60;99.90;;;;;;4894280;29;19931;-86
2022/01/12 16:17:31;;;;;;;;;;;7.60;99.90;;;;;;4900471;29;19932;-86
2022/01/12 16:19:57;;;;;;;;;;;7.50;99.90;;;;;;4897180;29;19999;-86
2022/01/12 16:22:26;;;;;;;;;;;7.60;99.90;;;;;;4893802;29;20291;-85
2022/01/12 16:24:54;;;;;;;;;;;7.60;99.90;;;;;;4895341;29;19984;-84
2022/01/12 16:27:21;;;;;;;;;;;7.50;99.90;;;;;;4894476;29;19927;-88
2022/01/12 16:29:48;;;;;;;;;;;7.40;99.90;;;;;;4898301;29;19927;-85
2022/01/12 16:32:15;;;;;;;;;;;7.40;99.90;;;;;;4896327;29;19935;-87
2022/01/12 16:34:42;;;;;;;;;;;7.30;99.90;;;;;;4895784;29;19935;-86
2022/01/12 16:37:10;;;;;;;;;;;7.20;99.90;;;;;;4896095;29;19939;-86
2022/01/12 16:39:38;;;;;;;;;;;7.10;99.90;;;;;;4896655;29;20014;-86
2022/01/12 16:42:06;;;;;;;;;;;7.10;99.90;;;;;;4881306;29;19994;-85
2022/01/12 16:44:32;;;;;;;;;;;7.00;99.90;;;;;;4899221;29;19985;-86
2022/01/12 16:47:00;;;;;;;;;;;6.90;99.90;;;;;;4891493;29;19983;-86
2022/01/12 16:49:26;;;;;;;;;;;7.00;99.90;;;;;;4901260;29;19931;-86
2022/01/12 16:51:55;;;;;;;;;;;6.80;99.90;;;;;;4898781;29;19935;-86
2022/01/12 16:54:22;;;;;;;;;;;6.70;99.90;;;;;;4897231;29;19938;-87
2022/01/12 16:56:50;;;;;;;;;;;6.90;99.90;;;;;;4900220;29;19963;-86
2022/01/12 16:59:17;;;;;;;;;;;6.60;99.90;;;;;;4898153;29;20352;-86
2022/01/12 17:01:44;;;;;;;;;;;6.60;99.90;;;;;;4896429;29;20014;-86
2022/01/12 17:04:11;;;;;;;;;;;6.50;99.90;;;;;;4902038;29;19935;-84
2022/01/12 17:06:38;;;;;;;;;;;6.50;99.90;;;;;;4897828;29;20327;-85
2022/01/12 17:09:06;;;;;;;;;;;6.50;99.90;;;;;;4882507;29;19931;-86
2022/01/12 17:11:33;;;;;;;;;;;6.60;99.90;;;;;;4900408;29;19934;-86
2022/01/12 17:14:01;;;;;;;;;;;6.60;99.90;;;;;;4902481;29;19931;-86
2022/01/12 17:16:47;;;;;;;;;;;6.50;99.90;;;;;;4900194;29;20406;-87
2022/01/12 17:19:18;;;;;;;;;;;6.50;99.90;;;;;;4903870;29;20022;-86
2022/01/12 17:21:47;;;;;;;;;;;6.30;99.90;;;;;;4897443;29;19931;-86
2022/01/12 17:24:27;;;;;;;;;;;6.30;99.90;;;;;;4884967;29;20050;-86
2022/01/12 17:27:13;;;;;;;;;;;6.40;99.90;;;;;;4858579;29;19936;-85
2022/01/12 17:29:42;;;;;;;;;;;6.80;99.90;;;;;;4906618;29;20424;-84
2022/01/12 17:32:09;;;;;;;;;;;6.30;99.90;;;;;;4892468;29;20302;-85
2022/01/12 17:34:36;;;;;;;;;;;6.10;99.90;;;;;;4885459;29;19935;-84
2022/01/12 17:37:04;;;;;;;;;;;6.20;99.90;;;;;;4891515;29;19939;-85
2022/01/12 17:39:32;;;;;;;;;;;6.30;99.90;;;;;;4897258;29;20315;-85
2022/01/12 17:42:01;;;;;;;;;;;6.30;99.90;;;;;;4898474;29;19927;-86
2022/01/12 17:44:29;;;;;;;;;;;6.20;99.90;;;;;;4891112;29;20434;-86
2022/01/12 17:46:57;;;;;;;;;;;6.20;99.90;;;;;;4898898;29;19932;-87
2022/01/12 17:49:27;;;;;;;;;;;6.10;99.90;;;;;;4899294;29;19928;-87
2022/01/12 17:51:55;;;;;;;;;;;6.00;99.90;;;;;;4899577;29;20286;-86
2022/01/12 17:54:23;;;;;;;;;;;6.10;99.90;;;;;;4897214;29;19927;-85
2022/01/12 17:56:50;;;;;;;;;;;6.20;99.90;;;;;;4863497;29;19983;-86